KSUT

Details ICAO KSUT
Name BRUNSWICK CO
Region United States
Timezone America/New_York (UTC-5.0)
Plans Departing 7
Arriving 3
Stats Elevation 25 ft / 8 m (AMSL)
Location 33.929261° -78.074993°
Runways 1
Magnetic Variation 9.275° W
Sunrise 2017-12-17 12:12:56 UTC / 2017-12-17 07:12:56 Local
Sunset 2017-12-17 22:06:51 UTC / 2017-12-17 17:06:51 Local
Advertisement - Login to hide

Runways

ID Width Length Bearing (true) Bearing (mag) Surface Threshold Offset Overrun Length
05 100 ft / 30 m 4,004 ft / 1,220 m 40.89° 50.17° Asphalt 0 ft / 0 m 0 ft / 0 m
23 100 ft / 30 m 4,004 ft / 1,220 m 220.90° 230.18° Asphalt 0 ft / 0 m 0 ft / 0 m

Map

Weather


0- 5 10 15 20 25 30 35+ Temperature / ° C

Clouds and Precipitation
Forecast for 2017-12-18 00:00 UTC. Updated 17 minutes ago

Ground ~20,000 ft ~40,000 ft Winds

METAR

KSUT 172125Z AUTO 00000KT 10SM CLR 12/05 A3023 RMK AO2 T01220053

TAF

Not found

Frequencies

Recorded 124.17 MHz AWOS 3
Approach 118.25 MHz WILMINGTON APP/DEP
Unicom 123.00 MHz CTAF/UNICOM
Warning: Do not use this data for real-world aviation or navigation. No guarantee of current accuracy is given.